sensor_id;sensor_type;location;lat;lon;timestamp;P1;durP1;ratioP1;P2;durP2;ratioP2
55776;SDS011;54079;44.540;18.784;2023-11-19T00:00:25;26.67;;;15.70;;
55776;SDS011;54079;44.540;18.784;2023-11-19T00:02:51;16.90;;;10.13;;
55776;SDS011;54079;44.540;18.784;2023-11-19T00:05:17;8.70;;;4.75;;
55776;SDS011;54079;44.540;18.784;2023-11-19T00:07:43;15.52;;;9.70;;
55776;SDS011;54079;44.540;18.784;2023-11-19T00:12:40;24.65;;;13.02;;
55776;SDS011;54079;44.540;18.784;2023-11-19T00:15:07;12.32;;;6.60;;
55776;SDS011;54079;44.540;18.784;2023-11-19T00:17:37;14.25;;;8.70;;
55776;SDS011;54079;44.540;18.784;2023-11-19T00:20:05;17.98;;;10.55;;
55776;SDS011;54079;44.540;18.784;2023-11-19T00:22:32;22.52;;;13.25;;
55776;SDS011;54079;44.540;18.784;2023-11-19T00:24:59;7.00;;;4.70;;
55776;SDS011;54079;44.540;18.784;2023-11-19T00:27:25;14.00;;;8.32;;
55776;SDS011;54079;44.540;18.784;2023-11-19T00:29:51;15.00;;;8.63;;
55776;SDS011;54079;44.540;18.784;2023-11-19T00:32:17;18.77;;;10.65;;
55776;SDS011;54079;44.540;18.784;2023-11-19T00:34:46;14.38;;;9.25;;
55776;SDS011;54079;44.540;18.784;2023-11-19T00:37:13;16.88;;;10.43;;
55776;SDS011;54079;44.540;18.784;2023-11-19T00:39:40;16.73;;;9.57;;
55776;SDS011;54079;44.540;18.784;2023-11-19T00:42:07;27.38;;;14.75;;
55776;SDS011;54079;44.540;18.784;2023-11-19T00:44:33;14.60;;;9.45;;
55776;SDS011;54079;44.540;18.784;2023-11-19T00:46:59;27.77;;;15.57;;
55776;SDS011;54079;44.540;18.784;2023-11-19T00:49:25;15.15;;;9.15;;
55776;SDS011;54079;44.540;18.784;2023-11-19T00:51:51;15.90;;;9.98;;
55776;SDS011;54079;44.540;18.784;2023-11-19T00:54:17;15.38;;;9.13;;
55776;SDS011;54079;44.540;18.784;2023-11-19T00:56:43;15.52;;;8.98;;
55776;SDS011;54079;44.540;18.784;2023-11-19T00:59:10;11.80;;;6.22;;
55776;SDS011;54079;44.540;18.784;2023-11-19T01:01:36;18.67;;;10.73;;
55776;SDS011;54079;44.540;18.784;2023-11-19T01:04:01;15.85;;;10.05;;
55776;SDS011;54079;44.540;18.784;2023-11-19T01:06:28;16.75;;;10.27;;
55776;SDS011;54079;44.540;18.784;2023-11-19T01:08:56;15.02;;;8.85;;
55776;SDS011;54079;44.540;18.784;2023-11-19T01:11:23;12.63;;;7.32;;
55776;SDS011;54079;44.540;18.784;2023-11-19T01:13:50;12.63;;;7.38;;
55776;SDS011;54079;44.540;18.784;2023-11-19T01:16:17;19.25;;;12.45;;
55776;SDS011;54079;44.540;18.784;2023-11-19T01:18:44;18.40;;;10.85;;
55776;SDS011;54079;44.540;18.784;2023-11-19T01:21:12;19.42;;;12.40;;
55776;SDS011;54079;44.540;18.784;2023-11-19T01:23:39;20.73;;;13.38;;
55776;SDS011;54079;44.540;18.784;2023-11-19T01:26:08;19.95;;;12.40;;
55776;SDS011;54079;44.540;18.784;2023-11-19T01:28:38;10.57;;;6.50;;
55776;SDS011;54079;44.540;18.784;2023-11-19T01:31:05;8.93;;;5.50;;
55776;SDS011;54079;44.540;18.784;2023-11-19T01:33:37;7.68;;;4.50;;
55776;SDS011;54079;44.540;18.784;2023-11-19T01:36:03;11.02;;;5.78;;
55776;SDS011;54079;44.540;18.784;2023-11-19T01:38:29;14.88;;;9.10;;
55776;SDS011;54079;44.540;18.784;2023-11-19T01:40:58;18.42;;;10.82;;
55776;SDS011;54079;44.540;18.784;2023-11-19T01:43:31;11.35;;;6.93;;
55776;SDS011;54079;44.540;18.784;2023-11-19T01:45:58;22.15;;;13.35;;
55776;SDS011;54079;44.540;18.784;2023-11-19T01:48:24;21.10;;;13.35;;
55776;SDS011;54079;44.540;18.784;2023-11-19T01:50:50;12.25;;;8.05;;
55776;SDS011;54079;44.540;18.784;2023-11-19T01:53:18;10.40;;;6.03;;
55776;SDS011;54079;44.540;18.784;2023-11-19T01:55:46;17.42;;;11.23;;
55776;SDS011;54079;44.540;18.784;2023-11-19T01:58:12;10.77;;;6.22;;
55776;SDS011;54079;44.540;18.784;2023-11-19T02:00:38;13.95;;;7.68;;
55776;SDS011;54079;44.540;18.784;2023-11-19T02:03:07;21.95;;;13.40;;
55776;SDS011;54079;44.540;18.784;2023-11-19T02:05:34;10.05;;;5.55;;
55776;SDS011;54079;44.540;18.784;2023-11-19T02:08:01;4.95;;;3.38;;
55776;SDS011;54079;44.540;18.784;2023-11-19T02:10:27;10.13;;;6.18;;
55776;SDS011;54079;44.540;18.784;2023-11-19T02:12:53;9.02;;;5.00;;
55776;SDS011;54079;44.540;18.784;2023-11-19T02:15:20;10.55;;;6.18;;
55776;SDS011;54079;44.540;18.784;2023-11-19T02:17:50;16.67;;;9.82;;
55776;SDS011;54079;44.540;18.784;2023-11-19T02:20:16;19.77;;;11.70;;
55776;SDS011;54079;44.540;18.784;2023-11-19T02:22:45;19.90;;;11.60;;
55776;SDS011;54079;44.540;18.784;2023-11-19T02:25:30;11.70;;;7.55;;
55776;SDS011;54079;44.540;18.784;2023-11-19T02:27:58;13.18;;;6.78;;
55776;SDS011;54079;44.540;18.784;2023-11-19T02:30:25;11.00;;;6.55;;
55776;SDS011;54079;44.540;18.784;2023-11-19T02:32:55;4.10;;;3.17;;
55776;SDS011;54079;44.540;18.784;2023-11-19T02:35:22;8.02;;;4.25;;
55776;SDS011;54079;44.540;18.784;2023-11-19T02:37:48;11.18;;;6.25;;
55776;SDS011;54079;44.540;18.784;2023-11-19T02:40:14;14.15;;;8.82;;
55776;SDS011;54079;44.540;18.784;2023-11-19T02:42:42;8.52;;;5.55;;
55776;SDS011;54079;44.540;18.784;2023-11-19T02:45:08;12.38;;;7.22;;
55776;SDS011;54079;44.540;18.784;2023-11-19T02:47:39;9.52;;;5.80;;
55776;SDS011;54079;44.540;18.784;2023-11-19T02:50:07;10.77;;;7.07;;
55776;SDS011;54079;44.540;18.784;2023-11-19T02:52:42;6.82;;;3.72;;
55776;SDS011;54079;44.540;18.784;2023-11-19T02:55:11;11.73;;;5.97;;
55776;SDS011;54079;44.540;18.784;2023-11-19T02:57:40;12.18;;;7.82;;
55776;SDS011;54079;44.540;18.784;2023-11-19T03:00:16;9.48;;;5.88;;
55776;SDS011;54079;44.540;18.784;2023-11-19T03:02:44;14.52;;;8.23;;
55776;SDS011;54079;44.540;18.784;2023-11-19T03:05:19;9.73;;;5.78;;
55776;SDS011;54079;44.540;18.784;2023-11-19T03:07:45;10.52;;;6.45;;
55776;SDS011;54079;44.540;18.784;2023-11-19T03:10:11;7.07;;;4.13;;
55776;SDS011;54079;44.540;18.784;2023-11-19T03:12:41;4.43;;;2.70;;
55776;SDS011;54079;44.540;18.784;2023-11-19T03:15:08;5.43;;;3.50;;
55776;SDS011;54079;44.540;18.784;2023-11-19T03:17:40;12.05;;;5.95;;
55776;SDS011;54079;44.540;18.784;2023-11-19T03:20:08;11.55;;;7.88;;
55776;SDS011;54079;44.540;18.784;2023-11-19T03:22:38;14.95;;;8.35;;
55776;SDS011;54079;44.540;18.784;2023-11-19T03:25:06;11.82;;;7.35;;
55776;SDS011;54079;44.540;18.784;2023-11-19T03:27:36;9.73;;;5.78;;
55776;SDS011;54079;44.540;18.784;2023-11-19T03:30:09;13.75;;;7.20;;
55776;SDS011;54079;44.540;18.784;2023-11-19T03:32:35;15.35;;;8.05;;
55776;SDS011;54079;44.540;18.784;2023-11-19T03:35:02;10.15;;;6.15;;
55776;SDS011;54079;44.540;18.784;2023-11-19T03:37:29;12.77;;;7.10;;
55776;SDS011;54079;44.540;18.784;2023-11-19T03:39:57;8.95;;;5.28;;
55776;SDS011;54079;44.540;18.784;2023-11-19T03:42:27;9.80;;;5.88;;
55776;SDS011;54079;44.540;18.784;2023-11-19T03:44:55;5.50;;;3.63;;
55776;SDS011;54079;44.540;18.784;2023-11-19T03:47:21;10.63;;;5.93;;
55776;SDS011;54079;44.540;18.784;2023-11-19T03:49:48;4.25;;;3.00;;
55776;SDS011;54079;44.540;18.784;2023-11-19T03:52:15;7.93;;;5.55;;
55776;SDS011;54079;44.540;18.784;2023-11-19T03:54:41;4.32;;;2.78;;
55776;SDS011;54079;44.540;18.784;2023-11-19T03:57:07;8.38;;;5.10;;
55776;SDS011;54079;44.540;18.784;2023-11-19T03:59:35;5.25;;;2.95;;
55776;SDS011;54079;44.540;18.784;2023-11-19T04:02:01;4.32;;;3.17;;
55776;SDS011;54079;44.540;18.784;2023-11-19T04:04:28;6.60;;;4.15;;
55776;SDS011;54079;44.540;18.784;2023-11-19T04:06:56;5.85;;;3.60;;
55776;SDS011;54079;44.540;18.784;2023-11-19T04:09:23;6.20;;;3.72;;
55776;SDS011;54079;44.540;18.784;2023-11-19T04:11:49;3.30;;;2.45;;
55776;SDS011;54079;44.540;18.784;2023-11-19T04:14:15;5.82;;;4.35;;
55776;SDS011;54079;44.540;18.784;2023-11-19T04:16:43;8.35;;;5.30;;
55776;SDS011;54079;44.540;18.784;2023-11-19T04:19:10;6.63;;;3.88;;
55776;SDS011;54079;44.540;18.784;2023-11-19T04:21:36;4.93;;;2.63;;
55776;SDS011;54079;44.540;18.784;2023-11-19T04:24:04;6.53;;;3.63;;
55776;SDS011;54079;44.540;18.784;2023-11-19T04:26:31;8.48;;;4.85;;
55776;SDS011;54079;44.540;18.784;2023-11-19T04:28:57;6.93;;;4.05;;
55776;SDS011;54079;44.540;18.784;2023-11-19T04:31:23;8.63;;;4.88;;
55776;SDS011;54079;44.540;18.784;2023-11-19T04:33:56;7.22;;;4.43;;
55776;SDS011;54079;44.540;18.784;2023-11-19T04:36:23;5.57;;;2.70;;
55776;SDS011;54079;44.540;18.784;2023-11-19T04:38:50;2.90;;;2.50;;
55776;SDS011;54079;44.540;18.784;2023-11-19T04:41:16;11.10;;;6.93;;
55776;SDS011;54079;44.540;18.784;2023-11-19T04:43:42;14.88;;;8.98;;
55776;SDS011;54079;44.540;18.784;2023-11-19T04:46:09;6.68;;;3.50;;
55776;SDS011;54079;44.540;18.784;2023-11-19T04:48:35;7.90;;;5.18;;
55776;SDS011;54079;44.540;18.784;2023-11-19T04:51:01;6.90;;;4.22;;
55776;SDS011;54079;44.540;18.784;2023-11-19T04:53:30;3.67;;;2.90;;
55776;SDS011;54079;44.540;18.784;2023-11-19T04:55:56;7.90;;;4.45;;
55776;SDS011;54079;44.540;18.784;2023-11-19T04:58:22;5.55;;;3.25;;
55776;SDS011;54079;44.540;18.784;2023-11-19T05:00:48;6.35;;;3.60;;
55776;SDS011;54079;44.540;18.784;2023-11-19T05:03:14;6.65;;;4.07;;
55776;SDS011;54079;44.540;18.784;2023-11-19T05:05:40;9.48;;;5.68;;
55776;SDS011;54079;44.540;18.784;2023-11-19T05:08:06;8.55;;;4.35;;
55776;SDS011;54079;44.540;18.784;2023-11-19T05:10:32;7.50;;;4.72;;
55776;SDS011;54079;44.540;18.784;2023-11-19T05:12:58;6.88;;;4.20;;
55776;SDS011;54079;44.540;18.784;2023-11-19T05:15:24;7.53;;;4.55;;
55776;SDS011;54079;44.540;18.784;2023-11-19T05:17:50;3.92;;;2.42;;
55776;SDS011;54079;44.540;18.784;2023-11-19T05:20:16;7.50;;;3.67;;
55776;SDS011;54079;44.540;18.784;2023-11-19T05:22:42;6.25;;;4.18;;
55776;SDS011;54079;44.540;18.784;2023-11-19T05:25:08;9.90;;;5.82;;
55776;SDS011;54079;44.540;18.784;2023-11-19T05:27:36;9.73;;;5.72;;
55776;SDS011;54079;44.540;18.784;2023-11-19T05:30:02;7.65;;;4.15;;
55776;SDS011;54079;44.540;18.784;2023-11-19T05:32:32;10.77;;;6.32;;
55776;SDS011;54079;44.540;18.784;2023-11-19T05:34:58;8.32;;;4.65;;
55776;SDS011;54079;44.540;18.784;2023-11-19T05:37:24;12.43;;;5.75;;
55776;SDS011;54079;44.540;18.784;2023-11-19T05:39:50;8.27;;;4.85;;
55776;SDS011;54079;44.540;18.784;2023-11-19T05:42:17;8.18;;;4.82;;
55776;SDS011;54079;44.540;18.784;2023-11-19T05:44:43;7.60;;;3.30;;
55776;SDS011;54079;44.540;18.784;2023-11-19T05:47:09;9.95;;;6.25;;
55776;SDS011;54079;44.540;18.784;2023-11-19T05:49:35;10.38;;;6.25;;
55776;SDS011;54079;44.540;18.784;2023-11-19T05:52:01;14.35;;;8.10;;
55776;SDS011;54079;44.540;18.784;2023-11-19T05:54:28;9.80;;;6.20;;
55776;SDS011;54079;44.540;18.784;2023-11-19T05:56:54;9.95;;;5.43;;
55776;SDS011;54079;44.540;18.784;2023-11-19T05:59:20;10.90;;;5.95;;
55776;SDS011;54079;44.540;18.784;2023-11-19T06:01:48;14.57;;;8.98;;
55776;SDS011;54079;44.540;18.784;2023-11-19T06:04:13;11.18;;;7.20;;
55776;SDS011;54079;44.540;18.784;2023-11-19T06:06:41;13.18;;;7.72;;
55776;SDS011;54079;44.540;18.784;2023-11-19T06:09:07;10.20;;;6.20;;
55776;SDS011;54079;44.540;18.784;2023-11-19T06:11:34;12.93;;;7.60;;
55776;SDS011;54079;44.540;18.784;2023-11-19T06:14:01;14.30;;;7.82;;
55776;SDS011;54079;44.540;18.784;2023-11-19T06:16:28;18.55;;;10.60;;
55776;SDS011;54079;44.540;18.784;2023-11-19T06:18:54;16.45;;;9.75;;
55776;SDS011;54079;44.540;18.784;2023-11-19T06:21:20;10.30;;;5.85;;
55776;SDS011;54079;44.540;18.784;2023-11-19T06:23:46;8.85;;;5.22;;
55776;SDS011;54079;44.540;18.784;2023-11-19T06:26:12;11.52;;;6.95;;
55776;SDS011;54079;44.540;18.784;2023-11-19T06:28:39;13.77;;;8.55;;
55776;SDS011;54079;44.540;18.784;2023-11-19T06:31:05;14.80;;;8.02;;
55776;SDS011;54079;44.540;18.784;2023-11-19T06:33:31;7.13;;;4.47;;
55776;SDS011;54079;44.540;18.784;2023-11-19T06:35:57;10.82;;;7.40;;
55776;SDS011;54079;44.540;18.784;2023-11-19T06:38:25;14.38;;;8.20;;
55776;SDS011;54079;44.540;18.784;2023-11-19T06:40:50;12.30;;;7.53;;
55776;SDS011;54079;44.540;18.784;2023-11-19T06:43:17;8.77;;;5.75;;
55776;SDS011;54079;44.540;18.784;2023-11-19T06:45:43;13.02;;;7.53;;
55776;SDS011;54079;44.540;18.784;2023-11-19T06:48:09;9.20;;;5.40;;
55776;SDS011;54079;44.540;18.784;2023-11-19T06:50:35;13.57;;;7.90;;
55776;SDS011;54079;44.540;18.784;2023-11-19T06:53:01;19.58;;;11.52;;
55776;SDS011;54079;44.540;18.784;2023-11-19T06:55:27;14.88;;;9.05;;
55776;SDS011;54079;44.540;18.784;2023-11-19T06:57:53;6.03;;;3.60;;
55776;SDS011;54079;44.540;18.784;2023-11-19T07:00:19;3.28;;;1.77;;
55776;SDS011;54079;44.540;18.784;2023-11-19T07:02:45;5.65;;;3.63;;
55776;SDS011;54079;44.540;18.784;2023-11-19T07:05:11;9.10;;;5.60;;
55776;SDS011;54079;44.540;18.784;2023-11-19T07:07:38;14.27;;;7.95;;
55776;SDS011;54079;44.540;18.784;2023-11-19T07:10:05;8.00;;;5.25;;
55776;SDS011;54079;44.540;18.784;2023-11-19T07:12:34;6.25;;;4.57;;
55776;SDS011;54079;44.540;18.784;2023-11-19T07:15:01;9.60;;;6.53;;
55776;SDS011;54079;44.540;18.784;2023-11-19T07:17:29;19.42;;;12.65;;
55776;SDS011;54079;44.540;18.784;2023-11-19T07:19:55;15.95;;;11.38;;
55776;SDS011;54079;44.540;18.784;2023-11-19T07:22:24;14.38;;;8.10;;
55776;SDS011;54079;44.540;18.784;2023-11-19T07:24:50;18.00;;;12.40;;
55776;SDS011;54079;44.540;18.784;2023-11-19T07:27:18;14.55;;;9.63;;
55776;SDS011;54079;44.540;18.784;2023-11-19T07:29:44;20.35;;;12.25;;
55776;SDS011;54079;44.540;18.784;2023-11-19T07:32:11;25.63;;;16.15;;
55776;SDS011;54079;44.540;18.784;2023-11-19T07:34:38;13.98;;;9.13;;
55776;SDS011;54079;44.540;18.784;2023-11-19T07:37:05;18.13;;;10.95;;
55776;SDS011;54079;44.540;18.784;2023-11-19T07:39:30;17.58;;;11.02;;
55776;SDS011;54079;44.540;18.784;2023-11-19T07:41:57;24.10;;;14.00;;
55776;SDS011;54079;44.540;18.784;2023-11-19T07:44:23;17.45;;;11.07;;
55776;SDS011;54079;44.540;18.784;2023-11-19T07:46:49;14.15;;;9.73;;
55776;SDS011;54079;44.540;18.784;2023-11-19T07:49:15;11.05;;;7.95;;
55776;SDS011;54079;44.540;18.784;2023-11-19T07:51:41;16.00;;;11.82;;
55776;SDS011;54079;44.540;18.784;2023-11-19T07:54:07;22.13;;;14.57;;
55776;SDS011;54079;44.540;18.784;2023-11-19T07:56:33;21.85;;;14.55;;
55776;SDS011;54079;44.540;18.784;2023-11-19T07:59:01;31.08;;;19.85;;
55776;SDS011;54079;44.540;18.784;2023-11-19T08:01:30;19.75;;;12.77;;
55776;SDS011;54079;44.540;18.784;2023-11-19T08:03:56;19.90;;;13.65;;
55776;SDS011;54079;44.540;18.784;2023-11-19T08:06:22;15.27;;;10.55;;
55776;SDS011;54079;44.540;18.784;2023-11-19T08:08:48;18.50;;;11.90;;
55776;SDS011;54079;44.540;18.784;2023-11-19T08:11:14;21.30;;;13.32;;
55776;SDS011;54079;44.540;18.784;2023-11-19T08:13:40;20.60;;;13.35;;
55776;SDS011;54079;44.540;18.784;2023-11-19T08:16:07;20.63;;;13.93;;
55776;SDS011;54079;44.540;18.784;2023-11-19T08:18:33;13.07;;;8.75;;
55776;SDS011;54079;44.540;18.784;2023-11-19T08:20:58;15.68;;;11.02;;
55776;SDS011;54079;44.540;18.784;2023-11-19T08:23:25;17.45;;;11.20;;
55776;SDS011;54079;44.540;18.784;2023-11-19T08:25:53;17.35;;;12.52;;
55776;SDS011;54079;44.540;18.784;2023-11-19T08:28:19;16.23;;;11.82;;
55776;SDS011;54079;44.540;18.784;2023-11-19T08:30:45;16.10;;;11.10;;
55776;SDS011;54079;44.540;18.784;2023-11-19T08:33:11;12.23;;;8.50;;
55776;SDS011;54079;44.540;18.784;2023-11-19T08:35:37;15.27;;;11.07;;
55776;SDS011;54079;44.540;18.784;2023-11-19T08:38:03;26.02;;;17.05;;
55776;SDS011;54079;44.540;18.784;2023-11-19T08:40:29;22.48;;;16.80;;
55776;SDS011;54079;44.540;18.784;2023-11-19T08:42:55;16.88;;;11.60;;
55776;SDS011;54079;44.540;18.784;2023-11-19T08:45:21;16.98;;;11.07;;
55776;SDS011;54079;44.540;18.784;2023-11-19T08:47:48;13.38;;;8.98;;
55776;SDS011;54079;44.540;18.784;2023-11-19T08:50:14;12.55;;;9.32;;
55776;SDS011;54079;44.540;18.784;2023-11-19T08:52:39;21.80;;;15.90;;
55776;SDS011;54079;44.540;18.784;2023-11-19T08:55:06;25.27;;;16.58;;
55776;SDS011;54079;44.540;18.784;2023-11-19T08:57:32;25.38;;;18.73;;
55776;SDS011;54079;44.540;18.784;2023-11-19T08:59:58;25.33;;;18.40;;
55776;SDS011;54079;44.540;18.784;2023-11-19T09:02:24;25.98;;;17.70;;
55776;SDS011;54079;44.540;18.784;2023-11-19T09:04:50;23.00;;;16.88;;
55776;SDS011;54079;44.540;18.784;2023-11-19T09:07:16;22.98;;;16.58;;
55776;SDS011;54079;44.540;18.784;2023-11-19T09:09:42;15.55;;;10.23;;
55776;SDS011;54079;44.540;18.784;2023-11-19T09:12:08;20.73;;;14.73;;
55776;SDS011;54079;44.540;18.784;2023-11-19T09:14:34;19.55;;;14.52;;
55776;SDS011;54079;44.540;18.784;2023-11-19T09:17:00;16.27;;;11.18;;
55776;SDS011;54079;44.540;18.784;2023-11-19T09:19:26;23.85;;;15.95;;
55776;SDS011;54079;44.540;18.784;2023-11-19T09:21:52;26.10;;;18.50;;
55776;SDS011;54079;44.540;18.784;2023-11-19T09:24:18;22.00;;;15.98;;
55776;SDS011;54079;44.540;18.784;2023-11-19T09:26:44;21.08;;;15.18;;
55776;SDS011;54079;44.540;18.784;2023-11-19T09:29:10;16.23;;;11.80;;
55776;SDS011;54079;44.540;18.784;2023-11-19T09:31:40;9.02;;;7.22;;
55776;SDS011;54079;44.540;18.784;2023-11-19T09:34:05;17.58;;;13.02;;
55776;SDS011;54079;44.540;18.784;2023-11-19T09:36:32;31.20;;;20.70;;
55776;SDS011;54079;44.540;18.784;2023-11-19T09:38:58;33.63;;;23.77;;
55776;SDS011;54079;44.540;18.784;2023-11-19T09:41:25;32.03;;;21.98;;
55776;SDS011;54079;44.540;18.784;2023-11-19T09:43:53;32.13;;;23.75;;
55776;SDS011;54079;44.540;18.784;2023-11-19T09:46:19;10.55;;;7.85;;
55776;SDS011;54079;44.540;18.784;2023-11-19T09:48:46;18.58;;;12.93;;
55776;SDS011;54079;44.540;18.784;2023-11-19T09:51:14;29.85;;;20.42;;
55776;SDS011;54079;44.540;18.784;2023-11-19T09:53:40;25.13;;;18.15;;
55776;SDS011;54079;44.540;18.784;2023-11-19T09:56:06;24.83;;;17.50;;
55776;SDS011;54079;44.540;18.784;2023-11-19T09:58:35;32.63;;;24.38;;
55776;SDS011;54079;44.540;18.784;2023-11-19T10:01:01;31.42;;;24.23;;
55776;SDS011;54079;44.540;18.784;2023-11-19T10:03:36;26.35;;;20.40;;
55776;SDS011;54079;44.540;18.784;2023-11-19T10:06:04;32.20;;;23.30;;
55776;SDS011;54079;44.540;18.784;2023-11-19T10:08:32;30.33;;;22.33;;
55776;SDS011;54079;44.540;18.784;2023-11-19T10:10:59;37.20;;;28.15;;
55776;SDS011;54079;44.540;18.784;2023-11-19T10:13:28;40.15;;;30.25;;
55776;SDS011;54079;44.540;18.784;2023-11-19T10:15:57;42.20;;;30.23;;
55776;SDS011;54079;44.540;18.784;2023-11-19T10:18:24;36.67;;;27.50;;
55776;SDS011;54079;44.540;18.784;2023-11-19T10:20:52;36.58;;;26.35;;
55776;SDS011;54079;44.540;18.784;2023-11-19T10:23:20;29.38;;;22.73;;
55776;SDS011;54079;44.540;18.784;2023-11-19T10:25:46;45.28;;;34.17;;
55776;SDS011;54079;44.540;18.784;2023-11-19T10:28:14;56.63;;;43.50;;
55776;SDS011;54079;44.540;18.784;2023-11-19T10:30:43;30.27;;;21.83;;
55776;SDS011;54079;44.540;18.784;2023-11-19T10:35:54;17.05;;;12.75;;
55776;SDS011;54079;44.540;18.784;2023-11-19T10:38:23;27.40;;;20.25;;
55776;SDS011;54079;44.540;18.784;2023-11-19T10:40:50;7.72;;;5.32;;
55776;SDS011;54079;44.540;18.784;2023-11-19T10:43:17;9.93;;;7.85;;
55776;SDS011;54079;44.540;18.784;2023-11-19T10:45:43;35.92;;;25.88;;
55776;SDS011;54079;44.540;18.784;2023-11-19T10:48:09;77.13;;;53.65;;
55776;SDS011;54079;44.540;18.784;2023-11-19T10:50:38;45.92;;;35.83;;
55776;SDS011;54079;44.540;18.784;2023-11-19T10:53:11;46.28;;;36.67;;
55776;SDS011;54079;44.540;18.784;2023-11-19T10:55:43;12.40;;;9.80;;
55776;SDS011;54079;44.540;18.784;2023-11-19T10:58:14;26.20;;;20.20;;
55776;SDS011;54079;44.540;18.784;2023-11-19T11:00:57;31.80;;;23.60;;
55776;SDS011;54079;44.540;18.784;2023-11-19T11:03:29;17.55;;;12.52;;
55776;SDS011;54079;44.540;18.784;2023-11-19T11:06:00;42.25;;;29.90;;
55776;SDS011;54079;44.540;18.784;2023-11-19T11:08:28;9.85;;;8.65;;
55776;SDS011;54079;44.540;18.784;2023-11-19T11:10:56;31.65;;;25.33;;
55776;SDS011;54079;44.540;18.784;2023-11-19T11:13:26;46.92;;;33.63;;
55776;SDS011;54079;44.540;18.784;2023-11-19T11:15:56;41.47;;;28.45;;
55776;SDS011;54079;44.540;18.784;2023-11-19T11:18:25;46.30;;;32.63;;
55776;SDS011;54079;44.540;18.784;2023-11-19T11:20:53;53.05;;;37.08;;
55776;SDS011;54079;44.540;18.784;2023-11-19T11:29:20;36.28;;;26.20;;
55776;SDS011;54079;44.540;18.784;2023-11-19T11:32:54;51.83;;;37.78;;
55776;SDS011;54079;44.540;18.784;2023-11-19T11:35:30;53.58;;;40.25;;
55776;SDS011;54079;44.540;18.784;2023-11-19T11:37:50;26.30;;;21.10;;
55776;SDS011;54079;44.540;18.784;2023-11-19T11:40:32;37.28;;;27.70;;
55776;SDS011;54079;44.540;18.784;2023-11-19T11:42:58;52.72;;;38.35;;
55776;SDS011;54079;44.540;18.784;2023-11-19T11:45:36;41.58;;;31.90;;
55776;SDS011;54079;44.540;18.784;2023-11-19T11:48:09;7.65;;;6.07;;
55776;SDS011;54079;44.540;18.784;2023-11-19T11:50:46;25.48;;;18.23;;
55776;SDS011;54079;44.540;18.784;2023-11-19T11:53:17;29.90;;;19.02;;
55776;SDS011;54079;44.540;18.784;2023-11-19T11:58:13;18.90;;;13.25;;
55776;SDS011;54079;44.540;18.784;2023-11-19T12:00:43;19.70;;;14.05;;
55776;SDS011;54079;44.540;18.784;2023-11-19T12:03:11;42.08;;;29.95;;
55776;SDS011;54079;44.540;18.784;2023-11-19T12:05:43;40.13;;;29.48;;
55776;SDS011;54079;44.540;18.784;2023-11-19T12:08:14;46.58;;;33.10;;
55776;SDS011;54079;44.540;18.784;2023-11-19T12:13:12;35.53;;;26.58;;
55776;SDS011;54079;44.540;18.784;2023-11-19T12:20:51;38.00;;;28.35;;
55776;SDS011;54079;44.540;18.784;2023-11-19T12:23:17;32.13;;;24.30;;
55776;SDS011;54079;44.540;18.784;2023-11-19T12:25:43;50.75;;;35.28;;
55776;SDS011;54079;44.540;18.784;2023-11-19T12:28:14;27.73;;;20.58;;
55776;SDS011;54079;44.540;18.784;2023-11-19T12:30:44;20.02;;;15.25;;
55776;SDS011;54079;44.540;18.784;2023-11-19T12:33:11;17.50;;;12.93;;
55776;SDS011;54079;44.540;18.784;2023-11-19T12:35:41;23.52;;;17.35;;
55776;SDS011;54079;44.540;18.784;2023-11-19T12:38:19;33.67;;;25.20;;
55776;SDS011;54079;44.540;18.784;2023-11-19T12:41:02;20.00;;;13.77;;
55776;SDS011;54079;44.540;18.784;2023-11-19T12:43:29;34.47;;;25.58;;
55776;SDS011;54079;44.540;18.784;2023-11-19T12:45:55;30.20;;;22.42;;
55776;SDS011;54079;44.540;18.784;2023-11-19T12:48:21;35.20;;;25.27;;
55776;SDS011;54079;44.540;18.784;2023-11-19T12:50:53;40.60;;;31.38;;
55776;SDS011;54079;44.540;18.784;2023-11-19T12:53:25;33.38;;;24.80;;
55776;SDS011;54079;44.540;18.784;2023-11-19T12:55:52;29.02;;;21.90;;
55776;SDS011;54079;44.540;18.784;2023-11-19T12:58:28;25.90;;;19.45;;
55776;SDS011;54079;44.540;18.784;2023-11-19T13:01:04;26.60;;;20.42;;
55776;SDS011;54079;44.540;18.784;2023-11-19T13:03:34;18.98;;;13.68;;
55776;SDS011;54079;44.540;18.784;2023-11-19T13:08:39;36.85;;;29.05;;
55776;SDS011;54079;44.540;18.784;2023-11-19T13:11:07;25.17;;;20.25;;
55776;SDS011;54079;44.540;18.784;2023-11-19T13:16:26;30.35;;;25.52;;
55776;SDS011;54079;44.540;18.784;2023-11-19T13:18:53;27.08;;;20.33;;
55776;SDS011;54079;44.540;18.784;2023-11-19T13:21:19;27.45;;;22.63;;
55776;SDS011;54079;44.540;18.784;2023-11-19T13:23:45;18.67;;;14.57;;
55776;SDS011;54079;44.540;18.784;2023-11-19T13:26:11;16.45;;;12.45;;
55776;SDS011;54079;44.540;18.784;2023-11-19T13:28:38;28.75;;;22.83;;
55776;SDS011;54079;44.540;18.784;2023-11-19T13:31:04;24.50;;;17.15;;
55776;SDS011;54079;44.540;18.784;2023-11-19T13:33:30;35.75;;;27.13;;
55776;SDS011;54079;44.540;18.784;2023-11-19T13:35:56;44.20;;;33.92;;
55776;SDS011;54079;44.540;18.784;2023-11-19T13:38:22;32.13;;;23.23;;
55776;SDS011;54079;44.540;18.784;2023-11-19T13:40:49;38.33;;;27.98;;
55776;SDS011;54079;44.540;18.784;2023-11-19T13:43:16;35.40;;;26.85;;
55776;SDS011;54079;44.540;18.784;2023-11-19T13:45:42;36.03;;;28.48;;
55776;SDS011;54079;44.540;18.784;2023-11-19T13:48:08;26.90;;;20.88;;
55776;SDS011;54079;44.540;18.784;2023-11-19T13:50:34;42.15;;;29.85;;
55776;SDS011;54079;44.540;18.784;2023-11-19T13:53:00;41.65;;;29.65;;
55776;SDS011;54079;44.540;18.784;2023-11-19T13:55:26;30.10;;;21.88;;
55776;SDS011;54079;44.540;18.784;2023-11-19T13:57:52;26.17;;;19.27;;
55776;SDS011;54079;44.540;18.784;2023-11-19T14:00:18;45.38;;;33.80;;
55776;SDS011;54079;44.540;18.784;2023-11-19T14:02:45;55.42;;;41.40;;
55776;SDS011;54079;44.540;18.784;2023-11-19T14:05:15;49.53;;;38.10;;
55776;SDS011;54079;44.540;18.784;2023-11-19T14:07:44;31.40;;;20.65;;
55776;SDS011;54079;44.540;18.784;2023-11-19T14:10:14;23.40;;;15.85;;
55776;SDS011;54079;44.540;18.784;2023-11-19T14:12:40;25.23;;;18.48;;
55776;SDS011;54079;44.540;18.784;2023-11-19T14:15:07;21.67;;;16.63;;
55776;SDS011;54079;44.540;18.784;2023-11-19T14:17:35;52.13;;;34.40;;
55776;SDS011;54079;44.540;18.784;2023-11-19T14:20:04;39.25;;;30.80;;
55776;SDS011;54079;44.540;18.784;2023-11-19T14:22:41;32.72;;;24.60;;
55776;SDS011;54079;44.540;18.784;2023-11-19T14:25:08;35.15;;;27.00;;
55776;SDS011;54079;44.540;18.784;2023-11-19T14:27:38;33.90;;;26.02;;
55776;SDS011;54079;44.540;18.784;2023-11-19T14:30:05;28.88;;;22.10;;
55776;SDS011;54079;44.540;18.784;2023-11-19T14:32:37;25.48;;;18.55;;
55776;SDS011;54079;44.540;18.784;2023-11-19T14:35:04;21.48;;;14.30;;
55776;SDS011;54079;44.540;18.784;2023-11-19T14:37:31;29.35;;;21.05;;
55776;SDS011;54079;44.540;18.784;2023-11-19T14:39:58;27.45;;;20.67;;
55776;SDS011;54079;44.540;18.784;2023-11-19T14:42:25;18.90;;;13.50;;
55776;SDS011;54079;44.540;18.784;2023-11-19T14:44:51;17.50;;;8.95;;
55776;SDS011;54079;44.540;18.784;2023-11-19T14:47:18;15.38;;;8.48;;